sensor_id;sensor_type;location;lat;lon;timestamp;P1;durP1;ratioP1;P2;durP2;ratioP2
8819;SDS011;4446;50.876;4.736;2023-04-25T00:00:52;8.30;;;2.67;;
8819;SDS011;4446;50.876;4.736;2023-04-25T00:03:19;5.00;;;2.88;;
8819;SDS011;4446;50.876;4.736;2023-04-25T00:05:48;4.78;;;3.17;;
8819;SDS011;4446;50.876;4.736;2023-04-25T00:08:16;8.68;;;3.42;;
8819;SDS011;4446;50.876;4.736;2023-04-25T00:10:43;5.75;;;2.67;;
8819;SDS011;4446;50.876;4.736;2023-04-25T00:13:10;7.50;;;2.75;;
8819;SDS011;4446;50.876;4.736;2023-04-25T00:15:38;5.70;;;2.58;;
8819;SDS011;4446;50.876;4.736;2023-04-25T00:18:06;6.35;;;2.80;;
8819;SDS011;4446;50.876;4.736;2023-04-25T00:20:35;5.38;;;2.20;;
8819;SDS011;4446;50.876;4.736;2023-04-25T00:23:03;8.15;;;2.60;;
8819;SDS011;4446;50.876;4.736;2023-04-25T00:25:31;6.20;;;3.13;;
8819;SDS011;4446;50.876;4.736;2023-04-25T00:27:58;6.30;;;2.58;;
8819;SDS011;4446;50.876;4.736;2023-04-25T00:30:24;7.18;;;2.70;;
8819;SDS011;4446;50.876;4.736;2023-04-25T00:32:51;8.10;;;3.40;;
8819;SDS011;4446;50.876;4.736;2023-04-25T00:35:18;9.93;;;2.92;;
8819;SDS011;4446;50.876;4.736;2023-04-25T00:37:46;8.20;;;2.63;;
8819;SDS011;4446;50.876;4.736;2023-04-25T00:40:14;10.57;;;3.17;;
8819;SDS011;4446;50.876;4.736;2023-04-25T00:42:41;6.82;;;3.15;;
8819;SDS011;4446;50.876;4.736;2023-04-25T00:45:09;6.53;;;2.70;;
8819;SDS011;4446;50.876;4.736;2023-04-25T00:47:40;5.93;;;2.83;;
8819;SDS011;4446;50.876;4.736;2023-04-25T00:50:07;8.07;;;3.03;;
8819;SDS011;4446;50.876;4.736;2023-04-25T00:52:35;7.22;;;2.90;;
8819;SDS011;4446;50.876;4.736;2023-04-25T00:55:04;6.85;;;2.67;;
8819;SDS011;4446;50.876;4.736;2023-04-25T00:57:32;5.30;;;2.70;;
8819;SDS011;4446;50.876;4.736;2023-04-25T01:00:00;8.00;;;2.78;;
8819;SDS011;4446;50.876;4.736;2023-04-25T01:02:27;8.18;;;3.40;;
8819;SDS011;4446;50.876;4.736;2023-04-25T01:04:57;8.65;;;3.17;;
8819;SDS011;4446;50.876;4.736;2023-04-25T01:07:24;7.53;;;3.08;;
8819;SDS011;4446;50.876;4.736;2023-04-25T01:09:52;11.00;;;3.30;;
8819;SDS011;4446;50.876;4.736;2023-04-25T01:12:19;6.80;;;3.30;;
8819;SDS011;4446;50.876;4.736;2023-04-25T01:14:48;6.13;;;3.08;;
8819;SDS011;4446;50.876;4.736;2023-04-25T01:17:15;7.63;;;2.90;;
8819;SDS011;4446;50.876;4.736;2023-04-25T01:19:43;7.60;;;2.70;;
8819;SDS011;4446;50.876;4.736;2023-04-25T01:22:12;8.57;;;2.80;;
8819;SDS011;4446;50.876;4.736;2023-04-25T01:24:39;7.63;;;2.67;;
8819;SDS011;4446;50.876;4.736;2023-04-25T01:27:07;7.70;;;3.03;;
8819;SDS011;4446;50.876;4.736;2023-04-25T01:29:35;8.40;;;2.83;;
8819;SDS011;4446;50.876;4.736;2023-04-25T01:32:03;9.43;;;3.45;;
8819;SDS011;4446;50.876;4.736;2023-04-25T01:34:31;9.73;;;2.67;;
8819;SDS011;4446;50.876;4.736;2023-04-25T01:36:59;4.88;;;2.85;;
8819;SDS011;4446;50.876;4.736;2023-04-25T01:39:28;11.88;;;3.58;;
8819;SDS011;4446;50.876;4.736;2023-04-25T01:41:56;7.78;;;2.90;;
8819;SDS011;4446;50.876;4.736;2023-04-25T01:44:24;8.23;;;3.38;;
8819;SDS011;4446;50.876;4.736;2023-04-25T01:46:51;8.38;;;3.05;;
8819;SDS011;4446;50.876;4.736;2023-04-25T01:49:18;4.53;;;2.75;;
8819;SDS011;4446;50.876;4.736;2023-04-25T01:51:45;6.43;;;3.03;;
8819;SDS011;4446;50.876;4.736;2023-04-25T01:54:12;6.53;;;2.90;;
8819;SDS011;4446;50.876;4.736;2023-04-25T01:56:41;8.45;;;2.92;;
8819;SDS011;4446;50.876;4.736;2023-04-25T01:59:08;5.80;;;2.72;;
8819;SDS011;4446;50.876;4.736;2023-04-25T02:01:35;6.70;;;2.80;;
8819;SDS011;4446;50.876;4.736;2023-04-25T02:04:02;5.47;;;3.00;;
8819;SDS011;4446;50.876;4.736;2023-04-25T02:06:29;9.82;;;3.42;;
8819;SDS011;4446;50.876;4.736;2023-04-25T02:08:57;7.03;;;3.60;;
8819;SDS011;4446;50.876;4.736;2023-04-25T02:11:24;7.68;;;3.05;;
8819;SDS011;4446;50.876;4.736;2023-04-25T02:13:52;7.00;;;3.00;;
8819;SDS011;4446;50.876;4.736;2023-04-25T02:16:19;8.35;;;2.80;;
8819;SDS011;4446;50.876;4.736;2023-04-25T02:18:46;5.75;;;2.78;;
8819;SDS011;4446;50.876;4.736;2023-04-25T02:21:13;5.75;;;2.85;;
8819;SDS011;4446;50.876;4.736;2023-04-25T02:23:40;8.27;;;3.05;;
8819;SDS011;4446;50.876;4.736;2023-04-25T02:26:07;5.18;;;2.75;;
8819;SDS011;4446;50.876;4.736;2023-04-25T02:28:36;10.35;;;2.80;;
8819;SDS011;4446;50.876;4.736;2023-04-25T02:31:04;7.13;;;2.70;;
8819;SDS011;4446;50.876;4.736;2023-04-25T02:33:32;6.40;;;2.80;;
8819;SDS011;4446;50.876;4.736;2023-04-25T02:35:59;11.63;;;2.83;;
8819;SDS011;4446;50.876;4.736;2023-04-25T02:38:26;7.45;;;2.55;;
8819;SDS011;4446;50.876;4.736;2023-04-25T02:40:53;9.95;;;3.45;;
8819;SDS011;4446;50.876;4.736;2023-04-25T02:43:20;10.80;;;3.05;;
8819;SDS011;4446;50.876;4.736;2023-04-25T02:45:47;9.30;;;2.75;;
8819;SDS011;4446;50.876;4.736;2023-04-25T02:48:15;7.50;;;2.80;;
8819;SDS011;4446;50.876;4.736;2023-04-25T02:50:42;10.25;;;3.15;;
8819;SDS011;4446;50.876;4.736;2023-04-25T02:53:10;9.35;;;2.78;;
8819;SDS011;4446;50.876;4.736;2023-04-25T02:55:37;6.13;;;2.38;;
8819;SDS011;4446;50.876;4.736;2023-04-25T02:58:04;5.32;;;2.53;;
8819;SDS011;4446;50.876;4.736;2023-04-25T03:00:32;8.93;;;3.10;;
8819;SDS011;4446;50.876;4.736;2023-04-25T03:02:59;4.43;;;2.28;;
8819;SDS011;4446;50.876;4.736;2023-04-25T03:05:27;9.07;;;2.60;;
8819;SDS011;4446;50.876;4.736;2023-04-25T03:07:54;10.32;;;2.92;;
8819;SDS011;4446;50.876;4.736;2023-04-25T03:10:21;5.25;;;2.30;;
8819;SDS011;4446;50.876;4.736;2023-04-25T03:12:48;7.25;;;2.30;;
8819;SDS011;4446;50.876;4.736;2023-04-25T03:15:15;3.90;;;2.20;;
8819;SDS011;4446;50.876;4.736;2023-04-25T03:17:42;10.20;;;2.53;;
8819;SDS011;4446;50.876;4.736;2023-04-25T03:20:10;7.82;;;3.00;;
8819;SDS011;4446;50.876;4.736;2023-04-25T03:22:39;3.80;;;2.28;;
8819;SDS011;4446;50.876;4.736;2023-04-25T03:25:06;7.60;;;2.22;;
8819;SDS011;4446;50.876;4.736;2023-04-25T03:27:34;7.55;;;2.30;;
8819;SDS011;4446;50.876;4.736;2023-04-25T03:30:01;4.88;;;2.15;;
8819;SDS011;4446;50.876;4.736;2023-04-25T03:32:28;5.30;;;2.70;;
8819;SDS011;4446;50.876;4.736;2023-04-25T03:34:55;6.45;;;2.65;;
8819;SDS011;4446;50.876;4.736;2023-04-25T03:37:21;7.25;;;2.83;;
8819;SDS011;4446;50.876;4.736;2023-04-25T03:39:50;10.05;;;2.38;;
8819;SDS011;4446;50.876;4.736;2023-04-25T03:42:17;12.73;;;3.58;;
8819;SDS011;4446;50.876;4.736;2023-04-25T03:44:44;8.50;;;3.08;;
8819;SDS011;4446;50.876;4.736;2023-04-25T03:47:11;6.05;;;2.83;;
8819;SDS011;4446;50.876;4.736;2023-04-25T03:49:38;8.00;;;2.65;;
8819;SDS011;4446;50.876;4.736;2023-04-25T03:52:05;8.40;;;2.58;;
8819;SDS011;4446;50.876;4.736;2023-04-25T03:54:32;7.65;;;2.70;;
8819;SDS011;4446;50.876;4.736;2023-04-25T03:57:01;7.43;;;2.58;;
8819;SDS011;4446;50.876;4.736;2023-04-25T03:59:28;6.97;;;2.95;;
8819;SDS011;4446;50.876;4.736;2023-04-25T04:01:55;7.85;;;2.30;;
8819;SDS011;4446;50.876;4.736;2023-04-25T04:04:23;10.95;;;2.38;;
8819;SDS011;4446;50.876;4.736;2023-04-25T04:06:50;3.22;;;2.28;;
8819;SDS011;4446;50.876;4.736;2023-04-25T04:09:17;9.10;;;2.40;;
8819;SDS011;4446;50.876;4.736;2023-04-25T04:11:45;8.65;;;3.25;;
8819;SDS011;4446;50.876;4.736;2023-04-25T04:14:13;8.38;;;2.50;;
8819;SDS011;4446;50.876;4.736;2023-04-25T04:16:41;7.55;;;2.03;;
8819;SDS011;4446;50.876;4.736;2023-04-25T04:19:08;10.20;;;2.65;;
8819;SDS011;4446;50.876;4.736;2023-04-25T04:21:35;5.55;;;2.00;;
8819;SDS011;4446;50.876;4.736;2023-04-25T04:24:02;5.78;;;2.60;;
8819;SDS011;4446;50.876;4.736;2023-04-25T04:26:31;7.82;;;2.53;;
8819;SDS011;4446;50.876;4.736;2023-04-25T04:28:59;5.85;;;2.40;;
8819;SDS011;4446;50.876;4.736;2023-04-25T04:31:27;4.65;;;2.30;;
8819;SDS011;4446;50.876;4.736;2023-04-25T04:33:55;5.63;;;2.10;;
8819;SDS011;4446;50.876;4.736;2023-04-25T04:36:22;3.80;;;1.95;;
8819;SDS011;4446;50.876;4.736;2023-04-25T04:38:51;7.72;;;2.28;;
8819;SDS011;4446;50.876;4.736;2023-04-25T04:41:19;5.68;;;2.28;;
8819;SDS011;4446;50.876;4.736;2023-04-25T04:43:46;6.40;;;2.17;;
8819;SDS011;4446;50.876;4.736;2023-04-25T04:46:13;4.43;;;2.25;;
8819;SDS011;4446;50.876;4.736;2023-04-25T04:48:41;7.70;;;2.40;;
8819;SDS011;4446;50.876;4.736;2023-04-25T04:51:09;5.93;;;2.88;;
8819;SDS011;4446;50.876;4.736;2023-04-25T04:53:36;4.03;;;2.30;;
8819;SDS011;4446;50.876;4.736;2023-04-25T04:56:03;3.47;;;1.98;;
8819;SDS011;4446;50.876;4.736;2023-04-25T04:58:31;9.30;;;2.78;;
8819;SDS011;4446;50.876;4.736;2023-04-25T05:00:58;7.47;;;2.83;;
8819;SDS011;4446;50.876;4.736;2023-04-25T05:03:25;6.95;;;2.67;;
8819;SDS011;4446;50.876;4.736;2023-04-25T05:05:53;4.88;;;2.42;;
8819;SDS011;4446;50.876;4.736;2023-04-25T05:08:20;4.90;;;2.33;;
8819;SDS011;4446;50.876;4.736;2023-04-25T05:10:47;8.15;;;2.40;;
8819;SDS011;4446;50.876;4.736;2023-04-25T05:13:14;7.15;;;2.55;;
8819;SDS011;4446;50.876;4.736;2023-04-25T05:15:41;6.80;;;2.55;;
8819;SDS011;4446;50.876;4.736;2023-04-25T05:18:08;9.38;;;2.28;;
8819;SDS011;4446;50.876;4.736;2023-04-25T05:20:35;7.50;;;2.72;;
8819;SDS011;4446;50.876;4.736;2023-04-25T05:23:04;7.07;;;2.55;;
8819;SDS011;4446;50.876;4.736;2023-04-25T05:25:31;6.95;;;2.38;;
8819;SDS011;4446;50.876;4.736;2023-04-25T05:27:58;4.65;;;2.63;;
8819;SDS011;4446;50.876;4.736;2023-04-25T05:30:25;9.13;;;2.85;;
8819;SDS011;4446;50.876;4.736;2023-04-25T05:32:52;6.10;;;2.50;;
8819;SDS011;4446;50.876;4.736;2023-04-25T05:35:19;8.20;;;2.83;;
8819;SDS011;4446;50.876;4.736;2023-04-25T05:37:46;2.97;;;1.83;;
8819;SDS011;4446;50.876;4.736;2023-04-25T05:40:14;7.47;;;2.55;;
8819;SDS011;4446;50.876;4.736;2023-04-25T05:42:41;10.50;;;2.67;;
8819;SDS011;4446;50.876;4.736;2023-04-25T05:45:09;5.88;;;2.50;;
8819;SDS011;4446;50.876;4.736;2023-04-25T05:47:36;5.28;;;2.30;;
8819;SDS011;4446;50.876;4.736;2023-04-25T05:50:03;7.95;;;2.25;;
8819;SDS011;4446;50.876;4.736;2023-04-25T05:52:31;9.32;;;3.30;;
8819;SDS011;4446;50.876;4.736;2023-04-25T05:54:58;5.80;;;2.35;;
8819;SDS011;4446;50.876;4.736;2023-04-25T05:57:26;6.25;;;2.58;;
8819;SDS011;4446;50.876;4.736;2023-04-25T05:59:53;8.15;;;3.13;;
8819;SDS011;4446;50.876;4.736;2023-04-25T06:02:21;7.13;;;2.60;;
8819;SDS011;4446;50.876;4.736;2023-04-25T06:04:48;4.45;;;2.53;;
8819;SDS011;4446;50.876;4.736;2023-04-25T06:07:16;5.15;;;2.65;;
8819;SDS011;4446;50.876;4.736;2023-04-25T06:09:43;5.90;;;2.72;;
8819;SDS011;4446;50.876;4.736;2023-04-25T06:12:10;6.63;;;2.70;;
8819;SDS011;4446;50.876;4.736;2023-04-25T06:14:39;8.07;;;3.72;;
8819;SDS011;4446;50.876;4.736;2023-04-25T06:17:05;6.53;;;2.90;;
8819;SDS011;4446;50.876;4.736;2023-04-25T06:19:33;5.95;;;2.92;;
8819;SDS011;4446;50.876;4.736;2023-04-25T06:22:02;12.38;;;3.78;;
8819;SDS011;4446;50.876;4.736;2023-04-25T06:24:29;8.60;;;3.08;;
8819;SDS011;4446;50.876;4.736;2023-04-25T06:26:55;5.72;;;2.50;;
8819;SDS011;4446;50.876;4.736;2023-04-25T06:29:22;9.70;;;2.97;;
8819;SDS011;4446;50.876;4.736;2023-04-25T06:31:51;8.55;;;2.90;;
8819;SDS011;4446;50.876;4.736;2023-04-25T06:34:18;9.82;;;3.13;;
8819;SDS011;4446;50.876;4.736;2023-04-25T06:36:45;11.07;;;3.53;;
8819;SDS011;4446;50.876;4.736;2023-04-25T06:39:12;12.20;;;3.00;;
8819;SDS011;4446;50.876;4.736;2023-04-25T06:41:39;5.57;;;2.80;;
8819;SDS011;4446;50.876;4.736;2023-04-25T06:44:07;8.18;;;3.08;;
8819;SDS011;4446;50.876;4.736;2023-04-25T06:46:34;12.00;;;4.20;;
8819;SDS011;4446;50.876;4.736;2023-04-25T06:49:02;7.90;;;2.78;;
8819;SDS011;4446;50.876;4.736;2023-04-25T06:51:29;9.38;;;2.97;;
8819;SDS011;4446;50.876;4.736;2023-04-25T06:53:57;8.73;;;3.22;;
8819;SDS011;4446;50.876;4.736;2023-04-25T06:56:24;7.40;;;2.72;;
8819;SDS011;4446;50.876;4.736;2023-04-25T06:58:51;5.53;;;2.97;;
8819;SDS011;4446;50.876;4.736;2023-04-25T07:01:18;5.53;;;2.53;;
8819;SDS011;4446;50.876;4.736;2023-04-25T07:03:45;5.57;;;3.00;;
8819;SDS011;4446;50.876;4.736;2023-04-25T07:06:13;13.25;;;3.67;;
8819;SDS011;4446;50.876;4.736;2023-04-25T07:08:40;5.22;;;3.03;;
8819;SDS011;4446;50.876;4.736;2023-04-25T07:11:07;6.93;;;2.67;;
8819;SDS011;4446;50.876;4.736;2023-04-25T07:13:34;8.05;;;2.80;;
8819;SDS011;4446;50.876;4.736;2023-04-25T07:16:01;5.32;;;2.55;;
8819;SDS011;4446;50.876;4.736;2023-04-25T07:18:29;5.03;;;2.95;;
8819;SDS011;4446;50.876;4.736;2023-04-25T07:20:56;7.20;;;2.80;;
8819;SDS011;4446;50.876;4.736;2023-04-25T07:23:24;6.60;;;2.47;;
8819;SDS011;4446;50.876;4.736;2023-04-25T07:25:51;6.25;;;2.70;;
8819;SDS011;4446;50.876;4.736;2023-04-25T07:28:18;7.93;;;4.35;;
8819;SDS011;4446;50.876;4.736;2023-04-25T07:30:45;5.18;;;2.10;;
8819;SDS011;4446;50.876;4.736;2023-04-25T07:33:12;6.05;;;2.40;;
8819;SDS011;4446;50.876;4.736;2023-04-25T07:35:39;5.88;;;2.65;;
8819;SDS011;4446;50.876;4.736;2023-04-25T07:38:06;7.18;;;2.25;;
8819;SDS011;4446;50.876;4.736;2023-04-25T07:40:36;5.10;;;2.15;;
8819;SDS011;4446;50.876;4.736;2023-04-25T07:43:03;5.45;;;2.40;;
8819;SDS011;4446;50.876;4.736;2023-04-25T07:45:30;7.97;;;2.58;;
8819;SDS011;4446;50.876;4.736;2023-04-25T07:47:57;7.57;;;2.72;;
8819;SDS011;4446;50.876;4.736;2023-04-25T07:50:24;4.00;;;2.28;;
8819;SDS011;4446;50.876;4.736;2023-04-25T07:52:51;9.05;;;2.45;;
8819;SDS011;4446;50.876;4.736;2023-04-25T07:55:18;5.82;;;2.05;;
8819;SDS011;4446;50.876;4.736;2023-04-25T07:57:46;3.83;;;1.92;;
8819;SDS011;4446;50.876;4.736;2023-04-25T08:00:14;4.88;;;2.22;;
8819;SDS011;4446;50.876;4.736;2023-04-25T08:02:41;6.60;;;2.42;;
8819;SDS011;4446;50.876;4.736;2023-04-25T08:05:08;6.47;;;2.70;;
8819;SDS011;4446;50.876;4.736;2023-04-25T08:07:39;6.15;;;2.30;;
8819;SDS011;4446;50.876;4.736;2023-04-25T08:10:07;5.78;;;2.15;;
8819;SDS011;4446;50.876;4.736;2023-04-25T08:12:34;6.50;;;2.60;;
8819;SDS011;4446;50.876;4.736;2023-04-25T08:15:03;7.53;;;2.30;;
8819;SDS011;4446;50.876;4.736;2023-04-25T08:17:31;7.38;;;1.95;;
8819;SDS011;4446;50.876;4.736;2023-04-25T08:20:00;6.63;;;2.15;;
8819;SDS011;4446;50.876;4.736;2023-04-25T08:22:29;4.88;;;2.17;;
8819;SDS011;4446;50.876;4.736;2023-04-25T08:24:56;7.80;;;2.17;;
8819;SDS011;4446;50.876;4.736;2023-04-25T08:27:23;5.28;;;2.28;;
8819;SDS011;4446;50.876;4.736;2023-04-25T08:29:50;5.57;;;2.03;;
8819;SDS011;4446;50.876;4.736;2023-04-25T08:32:19;8.65;;;2.90;;
8819;SDS011;4446;50.876;4.736;2023-04-25T08:34:47;6.35;;;2.22;;
8819;SDS011;4446;50.876;4.736;2023-04-25T08:37:14;5.28;;;2.03;;
8819;SDS011;4446;50.876;4.736;2023-04-25T08:39:40;3.60;;;2.10;;
8819;SDS011;4446;50.876;4.736;2023-04-25T08:42:08;5.45;;;1.80;;
8819;SDS011;4446;50.876;4.736;2023-04-25T08:44:36;4.88;;;2.10;;
8819;SDS011;4446;50.876;4.736;2023-04-25T08:47:03;5.32;;;1.80;;
8819;SDS011;4446;50.876;4.736;2023-04-25T08:49:32;4.65;;;2.10;;
8819;SDS011;4446;50.876;4.736;2023-04-25T08:52:00;4.97;;;1.70;;
8819;SDS011;4446;50.876;4.736;2023-04-25T08:54:30;5.45;;;1.90;;
8819;SDS011;4446;50.876;4.736;2023-04-25T08:57:00;3.97;;;1.75;;
8819;SDS011;4446;50.876;4.736;2023-04-25T08:59:29;6.80;;;2.38;;
8819;SDS011;4446;50.876;4.736;2023-04-25T09:01:56;6.10;;;2.30;;
8819;SDS011;4446;50.876;4.736;2023-04-25T09:04:24;7.07;;;1.80;;
8819;SDS011;4446;50.876;4.736;2023-04-25T09:06:52;3.17;;;1.60;;
8819;SDS011;4446;50.876;4.736;2023-04-25T09:09:19;4.00;;;1.90;;
8819;SDS011;4446;50.876;4.736;2023-04-25T09:11:46;4.75;;;2.55;;
8819;SDS011;4446;50.876;4.736;2023-04-25T09:14:14;4.95;;;2.00;;
8819;SDS011;4446;50.876;4.736;2023-04-25T09:16:58;5.18;;;2.60;;
8819;SDS011;4446;50.876;4.736;2023-04-25T09:19:27;4.25;;;1.85;;
8819;SDS011;4446;50.876;4.736;2023-04-25T09:21:57;3.10;;;1.35;;
8819;SDS011;4446;50.876;4.736;2023-04-25T09:24:32;9.90;;;2.83;;
8819;SDS011;4446;50.876;4.736;2023-04-25T09:27:02;2.83;;;2.00;;
8819;SDS011;4446;50.876;4.736;2023-04-25T09:29:30;2.83;;;1.58;;
8819;SDS011;4446;50.876;4.736;2023-04-25T09:34:46;2.95;;;1.63;;
8819;SDS011;4446;50.876;4.736;2023-04-25T09:37:24;5.68;;;2.00;;
8819;SDS011;4446;50.876;4.736;2023-04-25T09:39:53;2.97;;;2.22;;
8819;SDS011;4446;50.876;4.736;2023-04-25T09:42:21;4.65;;;1.90;;
8819;SDS011;4446;50.876;4.736;2023-04-25T09:44:51;5.60;;;1.60;;
8819;SDS011;4446;50.876;4.736;2023-04-25T09:47:19;4.15;;;1.77;;
8819;SDS011;4446;50.876;4.736;2023-04-25T09:49:48;7.28;;;1.63;;
8819;SDS011;4446;50.876;4.736;2023-04-25T09:52:17;3.75;;;1.58;;
8819;SDS011;4446;50.876;4.736;2023-04-25T09:54:47;2.13;;;1.55;;
8819;SDS011;4446;50.876;4.736;2023-04-25T09:57:15;4.93;;;1.60;;
8819;SDS011;4446;50.876;4.736;2023-04-25T09:59:43;4.43;;;1.58;;
8819;SDS011;4446;50.876;4.736;2023-04-25T10:02:11;3.70;;;1.58;;
8819;SDS011;4446;50.876;4.736;2023-04-25T10:04:40;3.42;;;1.48;;
8819;SDS011;4446;50.876;4.736;2023-04-25T10:07:08;5.47;;;1.58;;
8819;SDS011;4446;50.876;4.736;2023-04-25T10:09:37;2.67;;;1.40;;
8819;SDS011;4446;50.876;4.736;2023-04-25T10:12:06;2.28;;;1.33;;
8819;SDS011;4446;50.876;4.736;2023-04-25T10:14:34;4.55;;;1.30;;
8819;SDS011;4446;50.876;4.736;2023-04-25T10:17:01;2.35;;;1.10;;
8819;SDS011;4446;50.876;4.736;2023-04-25T10:19:28;1.50;;;1.20;;
8819;SDS011;4446;50.876;4.736;2023-04-25T10:21:58;4.00;;;1.30;;
8819;SDS011;4446;50.876;4.736;2023-04-25T10:24:32;1.65;;;1.45;;
8819;SDS011;4446;50.876;4.736;2023-04-25T10:27:01;1.67;;;1.10;;
8819;SDS011;4446;50.876;4.736;2023-04-25T10:29:28;1.83;;;1.30;;
8819;SDS011;4446;50.876;4.736;2023-04-25T10:31:55;1.95;;;1.13;;
8819;SDS011;4446;50.876;4.736;2023-04-25T10:34:24;1.15;;;1.05;;
8819;SDS011;4446;50.876;4.736;2023-04-25T10:37:04;1.55;;;1.20;;
8819;SDS011;4446;50.876;4.736;2023-04-25T10:39:32;5.18;;;1.58;;
8819;SDS011;4446;50.876;4.736;2023-04-25T10:42:01;3.95;;;1.23;;
8819;SDS011;4446;50.876;4.736;2023-04-25T10:44:29;1.67;;;1.05;;
8819;SDS011;4446;50.876;4.736;2023-04-25T10:46:57;1.50;;;1.10;;
8819;SDS011;4446;50.876;4.736;2023-04-25T10:49:29;1.20;;;1.10;;
8819;SDS011;4446;50.876;4.736;2023-04-25T10:54:47;5.03;;;1.27;;
8819;SDS011;4446;50.876;4.736;2023-04-25T10:57:29;2.35;;;1.20;;
8819;SDS011;4446;50.876;4.736;2023-04-25T10:59:59;2.85;;;1.15;;
8819;SDS011;4446;50.876;4.736;2023-04-25T11:02:30;4.18;;;1.15;;
8819;SDS011;4446;50.876;4.736;2023-04-25T11:04:57;2.42;;;1.10;;
8819;SDS011;4446;50.876;4.736;2023-04-25T11:07:28;2.83;;;1.30;;
8819;SDS011;4446;50.876;4.736;2023-04-25T11:10:02;1.73;;;1.05;;
8819;SDS011;4446;50.876;4.736;2023-04-25T11:12:32;1.25;;;1.10;;
8819;SDS011;4446;50.876;4.736;2023-04-25T11:14:59;2.17;;;1.15;;
8819;SDS011;4446;50.876;4.736;2023-04-25T11:17:27;1.70;;;1.00;;
8819;SDS011;4446;50.876;4.736;2023-04-25T11:19:55;1.92;;;1.17;;
8819;SDS011;4446;50.876;4.736;2023-04-25T11:22:22;1.40;;;1.20;;
8819;SDS011;4446;50.876;4.736;2023-04-25T11:24:50;2.05;;;1.30;;
8819;SDS011;4446;50.876;4.736;2023-04-25T11:27:17;5.63;;;1.40;;
8819;SDS011;4446;50.876;4.736;2023-04-25T11:29:45;3.33;;;1.40;;
8819;SDS011;4446;50.876;4.736;2023-04-25T11:32:14;4.28;;;1.10;;
8819;SDS011;4446;50.876;4.736;2023-04-25T11:34:42;1.45;;;1.23;;
8819;SDS011;4446;50.876;4.736;2023-04-25T11:37:11;2.88;;;1.23;;
8819;SDS011;4446;50.876;4.736;2023-04-25T11:39:42;3.47;;;1.27;;
8819;SDS011;4446;50.876;4.736;2023-04-25T11:42:11;1.40;;;1.08;;
8819;SDS011;4446;50.876;4.736;2023-04-25T11:44:39;3.20;;;1.33;;
8819;SDS011;4446;50.876;4.736;2023-04-25T11:47:08;3.65;;;1.50;;
8819;SDS011;4446;50.876;4.736;2023-04-25T11:49:35;2.30;;;1.50;;
8819;SDS011;4446;50.876;4.736;2023-04-25T11:52:02;2.83;;;1.50;;
8819;SDS011;4446;50.876;4.736;2023-04-25T11:54:29;2.95;;;1.30;;
8819;SDS011;4446;50.876;4.736;2023-04-25T11:56:56;1.42;;;1.20;;
8819;SDS011;4446;50.876;4.736;2023-04-25T11:59:24;2.65;;;1.25;;
8819;SDS011;4446;50.876;4.736;2023-04-25T12:01:52;1.67;;;1.15;;
8819;SDS011;4446;50.876;4.736;2023-04-25T12:04:21;1.55;;;1.30;;
8819;SDS011;4446;50.876;4.736;2023-04-25T12:06:49;2.92;;;1.70;;
8819;SDS011;4446;50.876;4.736;2023-04-25T12:09:18;2.08;;;1.23;;
8819;SDS011;4446;50.876;4.736;2023-04-25T12:11:47;3.08;;;1.30;;
8819;SDS011;4446;50.876;4.736;2023-04-25T12:14:21;1.23;;;1.10;;
8819;SDS011;4446;50.876;4.736;2023-04-25T12:16:50;1.80;;;1.10;;
8819;SDS011;4446;50.876;4.736;2023-04-25T12:19:18;3.45;;;1.52;;
8819;SDS011;4446;50.876;4.736;2023-04-25T12:21:47;3.05;;;1.35;;
8819;SDS011;4446;50.876;4.736;2023-04-25T12:24:15;1.15;;;1.05;;
8819;SDS011;4446;50.876;4.736;2023-04-25T12:26:48;2.63;;;1.50;;
8819;SDS011;4446;50.876;4.736;2023-04-25T12:29:20;1.05;;;1.02;;
8819;SDS011;4446;50.876;4.736;2023-04-25T12:31:49;2.65;;;1.30;;
8819;SDS011;4446;50.876;4.736;2023-04-25T12:34:18;3.60;;;1.75;;
8819;SDS011;4446;50.876;4.736;2023-04-25T12:36:47;1.38;;;1.25;;
8819;SDS011;4446;50.876;4.736;2023-04-25T12:39:15;1.80;;;1.30;;
8819;SDS011;4446;50.876;4.736;2023-04-25T12:41:42;2.75;;;1.25;;
8819;SDS011;4446;50.876;4.736;2023-04-25T12:44:09;2.72;;;1.40;;
8819;SDS011;4446;50.876;4.736;2023-04-25T12:46:36;4.93;;;1.70;;
8819;SDS011;4446;50.876;4.736;2023-04-25T12:49:04;1.98;;;1.25;;
8819;SDS011;4446;50.876;4.736;2023-04-25T12:51:32;1.60;;;1.30;;
8819;SDS011;4446;50.876;4.736;2023-04-25T12:54:01;2.97;;;1.40;;
8819;SDS011;4446;50.876;4.736;2023-04-25T12:56:29;3.70;;;1.58;;
8819;SDS011;4446;50.876;4.736;2023-04-25T12:58:56;1.92;;;1.33;;
8819;SDS011;4446;50.876;4.736;2023-04-25T13:01:23;2.50;;;1.52;;
8819;SDS011;4446;50.876;4.736;2023-04-25T13:03:51;1.92;;;1.50;;
8819;SDS011;4446;50.876;4.736;2023-04-25T13:06:19;2.05;;;1.20;;
8819;SDS011;4446;50.876;4.736;2023-04-25T13:08:46;1.90;;;1.20;;
8819;SDS011;4446;50.876;4.736;2023-04-25T13:11:15;4.10;;;1.15;;
8819;SDS011;4446;50.876;4.736;2023-04-25T13:13:42;2.05;;;0.93;;
8819;SDS011;4446;50.876;4.736;2023-04-25T13:16:10;1.33;;;0.90;;
8819;SDS011;4446;50.876;4.736;2023-04-25T13:18:39;1.38;;;0.90;;
8819;SDS011;4446;50.876;4.736;2023-04-25T13:21:06;1.33;;;1.10;;
8819;SDS011;4446;50.876;4.736;2023-04-25T13:23:33;2.10;;;1.00;;
8819;SDS011;4446;50.876;4.736;2023-04-25T13:25:59;1.83;;;1.15;;
8819;SDS011;4446;50.876;4.736;2023-04-25T13:28:28;1.45;;;0.95;;
8819;SDS011;4446;50.876;4.736;2023-04-25T13:30:55;3.88;;;1.08;;
8819;SDS011;4446;50.876;4.736;2023-04-25T13:33:23;3.22;;;1.17;;
8819;SDS011;4446;50.876;4.736;2023-04-25T13:35:51;2.47;;;0.90;;
8819;SDS011;4446;50.876;4.736;2023-04-25T13:38:21;1.88;;;1.27;;
8819;SDS011;4446;50.876;4.736;2023-04-25T13:40:49;0.93;;;0.85;;
8819;SDS011;4446;50.876;4.736;2023-04-25T13:43:18;1.20;;;1.10;;
8819;SDS011;4446;50.876;4.736;2023-04-25T13:45:47;2.55;;;1.10;;
8819;SDS011;4446;50.876;4.736;2023-04-25T13:48:14;1.00;;;0.90;;
8819;SDS011;4446;50.876;4.736;2023-04-25T13:50:41;1.60;;;1.20;;
8819;SDS011;4446;50.876;4.736;2023-04-25T13:53:08;2.47;;;1.10;;
8819;SDS011;4446;50.876;4.736;2023-04-25T13:55:35;2.30;;;1.20;;
8819;SDS011;4446;50.876;4.736;2023-04-25T13:58:03;2.40;;;1.42;;
8819;SDS011;4446;50.876;4.736;2023-04-25T14:00:33;1.52;;;1.10;;
8819;SDS011;4446;50.876;4.736;2023-04-25T14:03:03;2.88;;;1.30;;
8819;SDS011;4446;50.876;4.736;2023-04-25T14:05:32;3.92;;;1.60;;
8819;SDS011;4446;50.876;4.736;2023-04-25T14:08:03;1.25;;;1.15;;
8819;SDS011;4446;50.876;4.736;2023-04-25T14:10:32;2.13;;;1.15;;
8819;SDS011;4446;50.876;4.736;2023-04-25T14:13:00;1.23;;;1.05;;
8819;SDS011;4446;50.876;4.736;2023-04-25T14:15:28;2.67;;;1.13;;
8819;SDS011;4446;50.876;4.736;2023-04-25T14:17:57;2.58;;;1.13;;
8819;SDS011;4446;50.876;4.736;2023-04-25T14:20:26;3.05;;;1.20;;
8819;SDS011;4446;50.876;4.736;2023-04-25T14:22:53;1.33;;;1.10;;
8819;SDS011;4446;50.876;4.736;2023-04-25T14:25:21;2.58;;;1.20;;
8819;SDS011;4446;50.876;4.736;2023-04-25T14:27:48;2.72;;;1.10;;
8819;SDS011;4446;50.876;4.736;2023-04-25T14:30:16;1.65;;;1.00;;
8819;SDS011;4446;50.876;4.736;2023-04-25T14:32:43;1.52;;;1.02;;
8819;SDS011;4446;50.876;4.736;2023-04-25T14:35:11;1.80;;;0.88;;
8819;SDS011;4446;50.876;4.736;2023-04-25T14:37:39;1.83;;;1.20;;
8819;SDS011;4446;50.876;4.736;2023-04-25T14:40:07;1.20;;;1.10;;
8819;SDS011;4446;50.876;4.736;2023-04-25T14:42:35;2.38;;;1.15;;
8819;SDS011;4446;50.876;4.736;2023-04-25T14:45:03;1.88;;;1.08;;
8819;SDS011;4446;50.876;4.736;2023-04-25T14:47:31;3.63;;;1.30;;
8819;SDS011;4446;50.876;4.736;2023-04-25T14:49:58;1.90;;;1.25;;
8819;SDS011;4446;50.876;4.736;2023-04-25T14:52:26;1.60;;;1.10;;
8819;SDS011;4446;50.876;4.736;2023-04-25T14:54:56;2.85;;;1.40;;
8819;SDS011;4446;50.876;4.736;2023-04-25T14:57:32;4.93;;;2.10;;
8819;SDS011;4446;50.876;4.736;2023-04-25T15:00:00;2.75;;;1.10;;
8819;SDS011;4446;50.876;4.736;2023-04-25T15:02:33;3.88;;;1.10;;
8819;SDS011;4446;50.876;4.736;2023-04-25T15:05:00;2.25;;;1.20;;
8819;SDS011;4446;50.876;4.736;2023-04-25T15:07:28;0.98;;;0.93;;
8819;SDS011;4446;50.876;4.736;2023-04-25T15:10:00;2.95;;;1.10;;
8819;SDS011;4446;50.876;4.736;2023-04-25T15:12:27;1.95;;;1.08;;
8819;SDS011;4446;50.876;4.736;2023-04-25T15:14:55;3.70;;;1.30;;
8819;SDS011;4446;50.876;4.736;2023-04-25T15:17:22;3.40;;;1.00;;
8819;SDS011;4446;50.876;4.736;2023-04-25T15:19:50;1.95;;;1.00;;
8819;SDS011;4446;50.876;4.736;2023-04-25T15:22:17;2.20;;;0.93;;
8819;SDS011;4446;50.876;4.736;2023-04-25T15:24:47;2.22;;;1.10;;